Time;durP1;ratioP1;P1;durP2;ratioP2;P2;SDS_P1;SDS_P2;PMS_P1;PMS_P2;Temp;Humidity;BMP_temperature;BMP_pressure;BME280_temperature;BME280_humidity;BME280_pressure;Samples;Min_cycle;Max_cycle;Signal;HPM_P1;HPM_P2
2023/03/26 00:01:48;;;;;;;;;;;7.50;99.90;;;;;;5071619;28;19968;-78
2023/03/26 00:04:20;;;;;;;;;;;7.50;99.90;;;;;;5071643;28;19924;-78
2023/03/26 00:06:47;;;;;;;;;;;7.50;99.90;;;;;;5096240;28;20375;-78
2023/03/26 00:09:14;;;;;;;;;;;7.50;99.90;;;;;;5110131;28;19927;-77
2023/03/26 00:11:40;;;;;;;;;;;7.40;99.90;;;;;;5114509;27;20014;-78
2023/03/26 00:14:06;;;;;;;;;;;7.50;99.90;;;;;;5076161;28;19981;-78
2023/03/26 00:16:32;;;;;;;;;;;7.50;99.90;;;;;;5097478;28;19943;-78
2023/03/26 00:18:58;;;;;;;;;;;7.50;99.90;;;;;;5078987;28;19928;-78
2023/03/26 00:21:26;;;;;;;;;;;7.50;99.90;;;;;;5120386;27;19924;-78
2023/03/26 00:23:53;;;;;;;;;;;7.50;99.90;;;;;;5075686;28;19995;-77
2023/03/26 00:26:19;;;;;;;;;;;7.50;99.90;;;;;;5091947;28;19929;-78
2023/03/26 00:28:45;;;;;;;;;;;7.60;99.90;;;;;;5081215;28;20378;-78
2023/03/26 00:31:11;;;;;;;;;;;7.60;99.90;;;;;;5098485;28;19985;-78
2023/03/26 00:33:39;;;;;;;;;;;7.50;99.90;;;;;;5071929;28;20031;-78
2023/03/26 00:36:09;;;;;;;;;;;7.50;99.90;;;;;;5083107;28;19924;-78
2023/03/26 00:38:37;;;;;;;;;;;7.50;99.90;;;;;;5082774;28;19967;-78
2023/03/26 00:41:04;;;;;;;;;;;7.50;99.90;;;;;;5097867;28;19980;-78
2023/03/26 00:43:31;;;;;;;;;;;7.50;99.90;;;;;;5082323;28;19932;-78
2023/03/26 00:45:57;;;;;;;;;;;7.50;99.90;;;;;;5093191;28;19995;-78
2023/03/26 00:48:23;;;;;;;;;;;7.40;99.90;;;;;;5085553;28;19928;-78
2023/03/26 00:50:49;;;;;;;;;;;7.40;99.90;;;;;;5065881;28;19924;-78
2023/03/26 00:53:15;;;;;;;;;;;7.30;99.90;;;;;;5098365;28;19924;-78
2023/03/26 00:55:45;;;;;;;;;;;7.30;99.90;;;;;;5102615;28;19924;-78
2023/03/26 00:58:11;;;;;;;;;;;7.30;99.90;;;;;;5083969;28;19935;-78
2023/03/26 01:00:57;;;;;;;;;;;7.20;99.90;;;;;;5102441;28;19948;-78
2023/03/26 01:03:24;;;;;;;;;;;7.20;99.90;;;;;;5102207;28;19928;-78
2023/03/26 01:05:51;;;;;;;;;;;7.20;99.90;;;;;;5092035;28;19928;-78
2023/03/26 01:08:21;;;;;;;;;;;7.30;99.90;;;;;;5082410;28;20414;-78
2023/03/26 01:10:51;;;;;;;;;;;7.30;99.90;;;;;;5071255;28;19928;-78
2023/03/26 01:13:21;;;;;;;;;;;7.30;99.90;;;;;;5078055;28;19929;-78
2023/03/26 01:15:51;;;;;;;;;;;7.30;99.90;;;;;;5079251;28;20022;-78
2023/03/26 01:18:18;;;;;;;;;;;7.40;99.90;;;;;;5087029;28;19991;-78
2023/03/26 01:20:48;;;;;;;;;;;7.40;99.90;;;;;;5096549;28;19974;-78
2023/03/26 01:23:18;;;;;;;;;;;7.40;99.90;;;;;;5087591;28;19967;-78
2023/03/26 01:25:49;;;;;;;;;;;7.40;99.90;;;;;;5102180;28;20481;-78
2023/03/26 01:28:17;;;;;;;;;;;7.50;99.90;;;;;;5071718;28;20383;-78
2023/03/26 01:30:48;;;;;;;;;;;7.50;99.90;;;;;;5070577;28;19928;-78
2023/03/26 01:33:28;;;;;;;;;;;7.50;99.90;;;;;;5065994;28;19935;-78
2023/03/26 01:36:00;;;;;;;;;;;7.50;99.90;;;;;;5085149;28;19955;-78
2023/03/26 01:38:34;;;;;;;;;;;7.50;99.90;;;;;;5080510;28;20379;-78
2023/03/26 01:41:05;;;;;;;;;;;7.50;99.90;;;;;;5081712;28;19924;-78
2023/03/26 01:43:46;;;;;;;;;;;7.50;99.90;;;;;;5099622;28;19928;-78
2023/03/26 01:46:13;;;;;;;;;;;7.50;99.90;;;;;;5092185;28;19975;-78
2023/03/26 01:48:40;;;;;;;;;;;7.50;99.90;;;;;;5105480;28;20499;-78
2023/03/26 01:51:07;;;;;;;;;;;7.50;99.90;;;;;;5089725;28;19924;-78
2023/03/26 01:53:59;;;;;;;;;;;7.50;99.90;;;;;;5081812;28;19924;-78
2023/03/26 01:56:43;;;;;;;;;;;7.50;99.90;;;;;;5095207;28;20302;-78
2023/03/26 01:59:12;;;;;;;;;;;7.50;99.90;;;;;;5098722;28;19924;-78
2023/03/26 02:01:56;;;;;;;;;;;7.50;99.90;;;;;;5086391;28;20011;-78
2023/03/26 02:04:34;;;;;;;;;;;7.50;99.90;;;;;;5071443;28;19931;-78
2023/03/26 02:07:19;;;;;;;;;;;7.50;99.90;;;;;;5069656;28;20310;-78
2023/03/26 02:09:51;;;;;;;;;;;7.50;99.90;;;;;;5095266;28;19963;-78
2023/03/26 02:12:17;;;;;;;;;;;7.40;99.90;;;;;;5063030;28;19938;-79
2023/03/26 02:14:43;;;;;;;;;;;7.50;99.90;;;;;;5066739;28;19928;-78
2023/03/26 02:17:09;;;;;;;;;;;7.40;99.90;;;;;;5071950;28;19984;-78
2023/03/26 02:19:41;;;;;;;;;;;7.40;99.90;;;;;;5115801;27;20334;-78
2023/03/26 02:22:09;;;;;;;;;;;7.30;99.90;;;;;;5068121;28;19987;-79
2023/03/26 02:24:36;;;;;;;;;;;7.30;99.90;;;;;;5090747;28;19924;-78
2023/03/26 02:27:02;;;;;;;;;;;7.10;99.90;;;;;;5083322;28;19950;-78
2023/03/26 02:29:28;;;;;;;;;;;7.00;99.90;;;;;;5065584;28;19932;-78
2023/03/26 02:31:54;;;;;;;;;;;6.90;99.90;;;;;;5096958;28;19931;-78
2023/03/26 02:34:19;;;;;;;;;;;6.80;99.90;;;;;;5097955;28;19924;-78
2023/03/26 02:36:45;;;;;;;;;;;6.70;99.90;;;;;;5060652;28;19925;-79
2023/03/26 02:39:13;;;;;;;;;;;6.60;99.90;;;;;;5104501;28;20006;-79
2023/03/26 02:41:38;;;;;;;;;;;6.50;99.90;;;;;;5067803;28;19928;-79
2023/03/26 02:44:07;;;;;;;;;;;6.50;99.90;;;;;;5080349;28;20393;-78
2023/03/26 02:46:33;;;;;;;;;;;6.40;99.90;;;;;;5080502;28;19924;-78
2023/03/26 02:48:58;;;;;;;;;;;6.30;99.90;;;;;;5080477;28;19950;-78
2023/03/26 02:51:24;;;;;;;;;;;6.30;99.90;;;;;;5080469;28;19959;-78
2023/03/26 02:53:52;;;;;;;;;;;6.30;99.90;;;;;;5080198;28;19949;-78
2023/03/26 02:56:18;;;;;;;;;;;6.30;99.90;;;;;;5079795;28;19939;-78
2023/03/26 02:58:45;;;;;;;;;;;6.30;99.90;;;;;;5079480;28;19924;-79
2023/03/26 03:01:11;;;;;;;;;;;6.30;99.90;;;;;;5093164;28;19925;-78
2023/03/26 03:03:37;;;;;;;;;;;6.30;99.90;;;;;;5085215;28;19929;-78
2023/03/26 03:06:03;;;;;;;;;;;6.30;99.90;;;;;;5074393;28;19923;-78
2023/03/26 03:08:28;;;;;;;;;;;6.30;99.90;;;;;;5071325;28;20015;-78
2023/03/26 03:10:55;;;;;;;;;;;6.30;99.90;;;;;;5111772;28;20427;-78
2023/03/26 03:13:20;;;;;;;;;;;6.30;99.90;;;;;;5077461;28;20652;-78
2023/03/26 03:15:46;;;;;;;;;;;6.30;99.90;;;;;;5086919;28;19925;-79
2023/03/26 03:18:12;;;;;;;;;;;6.30;99.90;;;;;;5088990;28;19932;-78
2023/03/26 03:20:37;;;;;;;;;;;6.20;99.90;;;;;;5064713;28;20455;-78
2023/03/26 03:23:03;;;;;;;;;;;6.20;99.90;;;;;;5078299;28;19928;-78
2023/03/26 03:25:29;;;;;;;;;;;6.10;99.90;;;;;;5093662;28;19939;-78
2023/03/26 03:27:54;;;;;;;;;;;6.00;99.90;;;;;;5080012;28;19925;-78
2023/03/26 03:30:20;;;;;;;;;;;6.00;99.90;;;;;;5075786;28;19928;-78
2023/03/26 03:32:46;;;;;;;;;;;5.90;99.90;;;;;;5071089;28;19928;-78
2023/03/26 03:35:11;;;;;;;;;;;5.90;99.90;;;;;;5069746;28;19931;-78
2023/03/26 03:37:37;;;;;;;;;;;5.80;99.90;;;;;;5099592;28;19928;-78
2023/03/26 03:40:06;;;;;;;;;;;5.80;99.90;;;;;;5068517;28;19928;-78
2023/03/26 03:42:32;;;;;;;;;;;5.70;99.90;;;;;;5082682;28;19928;-79
2023/03/26 03:44:57;;;;;;;;;;;5.60;99.90;;;;;;5091275;28;19939;-78
2023/03/26 03:47:23;;;;;;;;;;;5.60;99.90;;;;;;5088811;28;19959;-78
2023/03/26 03:49:49;;;;;;;;;;;5.60;99.90;;;;;;5084216;28;19924;-78
2023/03/26 03:52:15;;;;;;;;;;;5.60;99.90;;;;;;5086005;28;20259;-78
2023/03/26 03:54:40;;;;;;;;;;;5.60;99.90;;;;;;5058311;28;19928;-77
2023/03/26 03:57:06;;;;;;;;;;;5.70;99.90;;;;;;5086155;28;20307;-77
2023/03/26 03:59:31;;;;;;;;;;;5.70;99.90;;;;;;5080096;28;19980;-77
2023/03/26 04:01:57;;;;;;;;;;;5.70;99.90;;;;;;5092298;28;20207;-78
2023/03/26 04:04:23;;;;;;;;;;;5.80;99.90;;;;;;5097541;28;20455;-77
2023/03/26 04:06:50;;;;;;;;;;;5.80;99.90;;;;;;5099735;28;19928;-77
2023/03/26 04:09:15;;;;;;;;;;;5.90;99.90;;;;;;5094943;28;20316;-78
2023/03/26 04:11:41;;;;;;;;;;;6.00;99.90;;;;;;5058823;28;20225;-78
2023/03/26 04:14:06;;;;;;;;;;;6.00;99.90;;;;;;5071200;28;20392;-78
2023/03/26 04:16:32;;;;;;;;;;;6.00;99.90;;;;;;5104041;28;19963;-78
2023/03/26 04:19:01;;;;;;;;;;;6.10;99.90;;;;;;5085950;28;20102;-78
2023/03/26 04:21:29;;;;;;;;;;;6.10;99.90;;;;;;5075537;28;20368;-78
2023/03/26 04:23:55;;;;;;;;;;;6.20;99.90;;;;;;5075986;28;20024;-78
2023/03/26 04:26:21;;;;;;;;;;;6.20;99.90;;;;;;5099735;28;20442;-78
2023/03/26 04:28:54;;;;;;;;;;;6.30;99.90;;;;;;5100349;28;19928;-77
2023/03/26 04:31:23;;;;;;;;;;;6.30;99.90;;;;;;5077861;28;19928;-78
2023/03/26 04:33:53;;;;;;;;;;;6.30;99.90;;;;;;5063883;28;20196;-78
2023/03/26 04:36:21;;;;;;;;;;;6.40;99.90;;;;;;5089485;28;20038;-78
2023/03/26 04:38:50;;;;;;;;;;;6.40;99.90;;;;;;5065789;28;19925;-78
2023/03/26 04:41:16;;;;;;;;;;;6.50;99.90;;;;;;5068440;28;19931;-78
2023/03/26 04:43:46;;;;;;;;;;;6.50;99.90;;;;;;5074734;28;19925;-78
2023/03/26 04:46:21;;;;;;;;;;;6.50;99.90;;;;;;5068834;28;19928;-78
2023/03/26 04:48:47;;;;;;;;;;;6.50;99.90;;;;;;5085481;28;19925;-78
2023/03/26 04:51:20;;;;;;;;;;;6.50;99.90;;;;;;5088520;28;19924;-78
2023/03/26 04:53:49;;;;;;;;;;;6.50;99.90;;;;;;5064377;28;19929;-78
2023/03/26 04:56:23;;;;;;;;;;;6.60;99.90;;;;;;5083116;28;19929;-78
2023/03/26 04:58:50;;;;;;;;;;;6.60;99.90;;;;;;5054608;28;19989;-78
2023/03/26 05:01:16;;;;;;;;;;;6.60;99.90;;;;;;5075953;28;20454;-78
2023/03/26 05:03:44;;;;;;;;;;;6.60;99.90;;;;;;5057913;28;19978;-78
2023/03/26 05:06:10;;;;;;;;;;;6.60;99.90;;;;;;5059885;28;20015;-78
2023/03/26 05:08:36;;;;;;;;;;;6.70;99.90;;;;;;5071223;28;19929;-78
2023/03/26 05:11:01;;;;;;;;;;;6.70;99.90;;;;;;5038303;28;19924;-78
2023/03/26 05:13:27;;;;;;;;;;;6.70;99.90;;;;;;5069791;28;19968;-78
2023/03/26 05:15:54;;;;;;;;;;;6.70;99.90;;;;;;5072782;28;19931;-78
2023/03/26 05:18:20;;;;;;;;;;;6.70;99.90;;;;;;5072716;28;20548;-78
2023/03/26 05:20:45;;;;;;;;;;;6.70;99.90;;;;;;5064506;28;19925;-78
2023/03/26 05:23:11;;;;;;;;;;;6.70;99.90;;;;;;5060474;28;19939;-78
2023/03/26 05:25:37;;;;;;;;;;;6.70;99.90;;;;;;5078174;28;19925;-78
2023/03/26 05:28:03;;;;;;;;;;;6.60;99.90;;;;;;5079204;28;19924;-78
2023/03/26 05:30:28;;;;;;;;;;;6.70;99.90;;;;;;5085186;28;20143;-78
2023/03/26 05:32:54;;;;;;;;;;;6.70;99.90;;;;;;5106984;28;20438;-78
2023/03/26 05:35:20;;;;;;;;;;;6.70;99.90;;;;;;5095067;28;19924;-78
2023/03/26 05:37:46;;;;;;;;;;;6.70;99.90;;;;;;5073499;28;19936;-78
2023/03/26 05:40:15;;;;;;;;;;;6.70;99.90;;;;;;5091425;28;19971;-78
2023/03/26 05:42:41;;;;;;;;;;;6.70;99.90;;;;;;5077928;28;19983;-78
2023/03/26 05:45:07;;;;;;;;;;;6.70;99.90;;;;;;5071674;28;19928;-78
2023/03/26 05:47:33;;;;;;;;;;;6.70;99.90;;;;;;5090019;28;19924;-78
2023/03/26 05:49:58;;;;;;;;;;;6.80;99.90;;;;;;5045308;28;19928;-78
2023/03/26 05:52:24;;;;;;;;;;;6.80;99.90;;;;;;5095846;28;19925;-78
2023/03/26 05:54:50;;;;;;;;;;;6.80;99.90;;;;;;5111023;27;19935;-78
2023/03/26 05:57:17;;;;;;;;;;;6.80;99.90;;;;;;5081772;27;19961;-78
2023/03/26 05:59:43;;;;;;;;;;;6.90;99.90;;;;;;5075916;28;19947;-78
2023/03/26 06:02:09;;;;;;;;;;;6.90;99.90;;;;;;5060344;28;19928;-78
2023/03/26 06:04:34;;;;;;;;;;;6.90;99.90;;;;;;5107504;28;19931;-78
2023/03/26 06:07:01;;;;;;;;;;;6.90;99.90;;;;;;5066350;28;19935;-78
2023/03/26 06:09:26;;;;;;;;;;;6.90;99.90;;;;;;5064252;27;20006;-78
2023/03/26 06:11:52;;;;;;;;;;;6.90;99.90;;;;;;5077261;28;20361;-78
2023/03/26 06:14:17;;;;;;;;;;;7.00;99.90;;;;;;5073942;27;19928;-78
2023/03/26 06:16:43;;;;;;;;;;;7.00;99.90;;;;;;5073826;27;19971;-78
2023/03/26 06:19:09;;;;;;;;;;;7.00;99.90;;;;;;5052985;28;20401;-78
2023/03/26 06:21:34;;;;;;;;;;;7.00;99.90;;;;;;5098281;28;19923;-79
2023/03/26 06:24:00;;;;;;;;;;;7.00;99.90;;;;;;5066221;28;19928;-78
2023/03/26 06:26:26;;;;;;;;;;;7.00;99.90;;;;;;5120140;28;19928;-78
2023/03/26 06:28:51;;;;;;;;;;;7.00;99.90;;;;;;5063229;28;20542;-78
2023/03/26 06:31:18;;;;;;;;;;;7.00;99.90;;;;;;5076728;27;20108;-78
2023/03/26 06:33:43;;;;;;;;;;;7.00;99.90;;;;;;5095898;28;19949;-79
2023/03/26 06:36:09;;;;;;;;;;;7.10;99.90;;;;;;5084329;28;19924;-79
2023/03/26 06:38:35;;;;;;;;;;;7.00;99.90;;;;;;5082913;28;19958;-79
2023/03/26 06:41:01;;;;;;;;;;;7.10;99.90;;;;;;5084901;28;19981;-78
2023/03/26 06:43:26;;;;;;;;;;;7.10;99.90;;;;;;5096056;28;19931;-78
2023/03/26 06:45:52;;;;;;;;;;;7.20;99.90;;;;;;5100983;28;19924;-79
2023/03/26 06:48:17;;;;;;;;;;;7.20;99.90;;;;;;5117765;28;20018;-78
2023/03/26 06:50:43;;;;;;;;;;;7.20;99.90;;;;;;5067509;28;19924;-78
2023/03/26 06:53:10;;;;;;;;;;;7.20;99.90;;;;;;5076396;28;19928;-78
2023/03/26 06:55:35;;;;;;;;;;;7.30;99.90;;;;;;5065427;28;19931;-78
2023/03/26 06:58:01;;;;;;;;;;;7.30;99.90;;;;;;5083911;28;19924;-78
2023/03/26 07:00:26;;;;;;;;;;;7.40;99.90;;;;;;5083761;28;19928;-79
2023/03/26 07:02:52;;;;;;;;;;;7.50;99.90;;;;;;5064774;28;19931;-78
2023/03/26 07:05:18;;;;;;;;;;;7.50;99.90;;;;;;5065426;28;19927;-78
2023/03/26 07:07:43;;;;;;;;;;;7.60;99.90;;;;;;5074480;28;19927;-78
2023/03/26 07:10:09;;;;;;;;;;;7.60;99.90;;;;;;5104584;28;19924;-78
2023/03/26 07:12:34;;;;;;;;;;;7.70;99.90;;;;;;5087829;28;20305;-79
2023/03/26 07:15:02;;;;;;;;;;;7.80;99.90;;;;;;5084670;28;19946;-79
2023/03/26 07:17:27;;;;;;;;;;;7.80;99.90;;;;;;5088102;28;19946;-78
2023/03/26 07:19:53;;;;;;;;;;;7.90;99.90;;;;;;5062078;28;19967;-78
2023/03/26 07:22:20;;;;;;;;;;;7.90;99.90;;;;;;5074749;28;19925;-79
2023/03/26 07:24:46;;;;;;;;;;;7.90;99.90;;;;;;5110757;28;19928;-78
2023/03/26 07:27:21;;;;;;;;;;;7.90;99.90;;;;;;5076439;28;19935;-79
2023/03/26 07:29:52;;;;;;;;;;;7.90;99.90;;;;;;5081300;28;19924;-79
2023/03/26 07:32:30;;;;;;;;;;;7.90;99.90;;;;;;5088471;28;19927;-78
2023/03/26 07:34:55;;;;;;;;;;;8.00;99.90;;;;;;5087289;28;20388;-79
2023/03/26 07:37:41;;;;;;;;;;;8.00;99.90;;;;;;5118820;28;19955;-78
2023/03/26 07:40:16;;;;;;;;;;;8.00;99.90;;;;;;5035518;28;19927;-78
2023/03/26 07:42:54;;;;;;;;;;;8.10;99.90;;;;;;5115886;28;20007;-78
2023/03/26 07:45:38;;;;;;;;;;;8.10;99.90;;;;;;5072100;27;19924;-78
2023/03/26 07:48:11;;;;;;;;;;;8.00;99.90;;;;;;5088618;28;19927;-77
2023/03/26 07:50:37;;;;;;;;;;;8.10;99.90;;;;;;5110987;28;20294;-78
2023/03/26 07:53:03;;;;;;;;;;;8.00;99.90;;;;;;5089199;28;20414;-78
2023/03/26 07:55:29;;;;;;;;;;;8.10;99.90;;;;;;5085077;27;19924;-78
2023/03/26 07:58:08;;;;;;;;;;;8.20;99.90;;;;;;5094146;28;19983;-78
2023/03/26 08:00:40;;;;;;;;;;;8.10;99.90;;;;;;5090486;28;19924;-78
2023/03/26 08:03:20;;;;;;;;;;;8.10;99.90;;;;;;5089640;28;19981;-79
2023/03/26 08:05:52;;;;;;;;;;;8.10;99.90;;;;;;5072042;27;19927;-78
2023/03/26 08:08:20;;;;;;;;;;;8.10;99.90;;;;;;5070138;28;19931;-79
2023/03/26 08:10:52;;;;;;;;;;;8.00;99.90;;;;;;5089486;28;19953;-76
2023/03/26 08:13:27;;;;;;;;;;;8.10;99.90;;;;;;5084230;28;19928;-72
2023/03/26 08:16:05;;;;;;;;;;;8.10;99.90;;;;;;5117421;27;19928;-72
2023/03/26 08:18:37;;;;;;;;;;;8.10;99.90;;;;;;5104218;27;20186;-72
2023/03/26 08:21:16;;;;;;;;;;;8.20;99.90;;;;;;5088150;27;19932;-72
2023/03/26 08:23:50;;;;;;;;;;;8.20;99.90;;;;;;5105375;27;22124;-72
2023/03/26 08:26:16;;;;;;;;;;;8.30;99.90;;;;;;5089103;28;20019;-71
2023/03/26 08:28:41;;;;;;;;;;;8.30;99.90;;;;;;5109807;27;19963;-71
2023/03/26 08:31:08;;;;;;;;;;;8.30;99.90;;;;;;5103135;27;19931;-71
2023/03/26 08:33:35;;;;;;;;;;;8.40;99.90;;;;;;5086109;28;19935;-71
2023/03/26 08:36:00;;;;;;;;;;;8.30;99.90;;;;;;5108970;27;19923;-71
2023/03/26 08:38:26;;;;;;;;;;;8.30;99.90;;;;;;5087652;28;19953;-71
2023/03/26 08:41:10;;;;;;;;;;;8.30;99.90;;;;;;5113337;27;19967;-71
2023/03/26 08:43:38;;;;;;;;;;;8.30;99.90;;;;;;5107796;27;19924;-71
2023/03/26 08:46:14;;;;;;;;;;;8.30;99.90;;;;;;5087679;27;19924;-71
2023/03/26 08:48:39;;;;;;;;;;;8.30;99.90;;;;;;5103993;27;19939;-71
2023/03/26 08:51:26;;;;;;;;;;;8.20;99.90;;;;;;5087973;28;19924;-71
2023/03/26 08:54:13;;;;;;;;;;;8.30;99.90;;;;;;5078686;28;20420;-71
2023/03/26 08:56:39;;;;;;;;;;;8.20;99.90;;;;;;5098810;28;19928;-71
2023/03/26 08:59:40;;;;;;;;;;;8.30;99.90;;;;;;5089252;28;20017;-71
2023/03/26 09:02:16;;;;;;;;;;;8.20;99.90;;;;;;5003360;28;19949;-71
2023/03/26 09:05:04;;;;;;;;;;;8.20;99.90;;;;;;5070485;28;19935;-71
2023/03/26 09:07:41;;;;;;;;;;;8.10;99.90;;;;;;5083541;28;20374;-71
2023/03/26 09:10:19;;;;;;;;;;;8.10;99.90;;;;;;5116580;27;20354;-71
2023/03/26 09:12:51;;;;;;;;;;;8.20;99.90;;;;;;5087864;28;19925;-71
2023/03/26 09:15:19;;;;;;;;;;;8.10;99.90;;;;;;5084748;28;19933;-71
2023/03/26 09:18:04;;;;;;;;;;;8.20;99.90;;;;;;5086497;28;20635;-71
2023/03/26 09:20:48;;;;;;;;;;;8.20;99.90;;;;;;5087200;28;19932;-71
2023/03/26 09:23:29;;;;;;;;;;;8.20;99.90;;;;;;5091672;28;20306;-71
2023/03/26 09:25:57;;;;;;;;;;;8.30;99.90;;;;;;5080170;28;19935;-71
2023/03/26 09:28:26;;;;;;;;;;;8.30;99.90;;;;;;5113321;27;19978;-71
2023/03/26 09:31:10;;;;;;;;;;;8.30;99.90;;;;;;5115555;27;19930;-71
2023/03/26 09:33:58;;;;;;;;;;;8.30;99.90;;;;;;5087783;28;19931;-71
2023/03/26 09:36:27;;;;;;;;;;;8.40;99.90;;;;;;5087533;28;19932;-71
2023/03/26 09:39:07;;;;;;;;;;;8.30;99.90;;;;;;5069514;28;19951;-71
2023/03/26 09:41:33;;;;;;;;;;;8.30;99.90;;;;;;5082398;28;19947;-71
2023/03/26 09:44:17;;;;;;;;;;;8.50;99.90;;;;;;5083940;28;19928;-70
2023/03/26 09:47:02;;;;;;;;;;;8.50;99.90;;;;;;5088461;28;19931;-71
2023/03/26 09:49:50;;;;;;;;;;;8.50;99.90;;;;;;5086063;28;20295;-71
2023/03/26 09:52:34;;;;;;;;;;;8.50;99.90;;;;;;5085842;28;19932;-71
2023/03/26 09:55:20;;;;;;;;;;;8.60;99.90;;;;;;5082660;28;19932;-71
2023/03/26 09:58:08;;;;;;;;;;;8.70;99.90;;;;;;5089928;28;19938;-71
2023/03/26 10:00:46;;;;;;;;;;;8.80;99.90;;;;;;5090904;28;19931;-71
2023/03/26 10:03:21;;;;;;;;;;;8.80;99.90;;;;;;5086557;28;19928;-71
2023/03/26 10:05:59;;;;;;;;;;;8.90;99.90;;;;;;5085197;28;20002;-68
2023/03/26 10:08:31;;;;;;;;;;;9.10;99.90;;;;;;5070978;28;19981;-69
2023/03/26 10:11:15;;;;;;;;;;;9.30;99.90;;;;;;5086184;28;19928;-69
2023/03/26 10:13:52;;;;;;;;;;;9.50;99.90;;;;;;5086511;28;19983;-69
2023/03/26 10:16:33;;;;;;;;;;;9.70;99.90;;;;;;5090366;28;19925;-68
2023/03/26 10:19:17;;;;;;;;;;;9.90;99.90;;;;;;5086281;28;20489;-70
2023/03/26 10:21:56;;;;;;;;;;;10.00;99.90;;;;;;5092998;28;19924;-70
2023/03/26 10:24:27;;;;;;;;;;;10.00;99.90;;;;;;5087325;28;19979;-70
2023/03/26 10:27:03;;;;;;;;;;;9.90;99.90;;;;;;5088797;28;20019;-70
2023/03/26 10:29:29;;;;;;;;;;;10.00;99.90;;;;;;5088617;28;19993;-70
2023/03/26 10:31:56;;;;;;;;;;;10.20;99.90;;;;;;5089793;28;19932;-70
2023/03/26 10:34:30;;;;;;;;;;;10.30;99.90;;;;;;5092793;28;19925;-70
2023/03/26 10:36:58;;;;;;;;;;;10.30;99.90;;;;;;5085562;28;19931;-70
2023/03/26 10:39:49;;;;;;;;;;;10.20;99.90;;;;;;5086047;28;19943;-73
2023/03/26 10:42:15;;;;;;;;;;;10.10;99.90;;;;;;5074458;28;20023;-75
2023/03/26 10:45:08;;;;;;;;;;;10.10;99.90;;;;;;5073107;28;19931;-76
2023/03/26 10:47:52;;;;;;;;;;;10.00;99.90;;;;;;5087373;28;19932;-76
2023/03/26 10:50:37;;;;;;;;;;;10.10;99.90;;;;;;5084525;28;19959;-76
2023/03/26 10:53:26;;;;;;;;;;;10.10;99.90;;;;;;5065876;28;20019;-76
2023/03/26 10:55:59;;;;;;;;;;;10.10;99.90;;;;;;5058364;28;19924;-75
2023/03/26 10:58:28;;;;;;;;;;;10.10;99.90;;;;;;5105258;28;19931;-76
2023/03/26 11:00:56;;;;;;;;;;;10.00;99.90;;;;;;5065890;28;20530;-75
2023/03/26 11:03:31;;;;;;;;;;;10.00;99.90;;;;;;5091507;28;19938;-76
2023/03/26 11:05:59;;;;;;;;;;;10.00;99.90;;;;;;5079893;28;19932;-78
2023/03/26 11:08:45;;;;;;;;;;;10.10;99.90;;;;;;5097340;28;19931;-78
2023/03/26 11:11:28;;;;;;;;;;;10.10;99.90;;;;;;5080776;28;19993;-78
2023/03/26 11:14:03;;;;;;;;;;;10.20;99.90;;;;;;5099591;28;19924;-78
2023/03/26 11:16:34;;;;;;;;;;;10.30;99.90;;;;;;5063964;28;19974;-77
2023/03/26 11:19:06;;;;;;;;;;;10.30;99.90;;;;;;5097047;28;19981;-78
2023/03/26 11:21:35;;;;;;;;;;;10.30;99.90;;;;;;5088462;28;19924;-77
2023/03/26 11:24:07;;;;;;;;;;;10.40;99.90;;;;;;5087622;28;19927;-78
2023/03/26 11:26:55;;;;;;;;;;;10.30;99.90;;;;;;5087244;28;19938;-78
2023/03/26 11:29:39;;;;;;;;;;;10.30;99.90;;;;;;5094707;28;19924;-78
2023/03/26 11:32:04;;;;;;;;;;;10.30;99.90;;;;;;5122851;27;19947;-78
2023/03/26 11:34:42;;;;;;;;;;;10.20;99.40;;;;;;5101532;28;20398;-78
2023/03/26 11:37:13;;;;;;;;;;;10.20;99.90;;;;;;5086690;28;19955;-78
2023/03/26 11:39:44;;;;;;;;;;;10.20;99.90;;;;;;5100405;28;19927;-78
2023/03/26 11:42:12;;;;;;;;;;;10.10;99.30;;;;;;5095348;28;20514;-78
2023/03/26 11:44:41;;;;;;;;;;;10.10;98.20;;;;;;5077466;28;19924;-78
2023/03/26 11:47:09;;;;;;;;;;;10.00;97.40;;;;;;5107625;28;19945;-78
2023/03/26 11:49:35;;;;;;;;;;;10.00;99.80;;;;;;5091798;28;20278;-77
2023/03/26 11:52:02;;;;;;;;;;;9.90;99.90;;;;;;5078212;27;19947;-77
2023/03/26 11:54:28;;;;;;;;;;;9.90;98.90;;;;;;5101322;28;19936;-78
2023/03/26 11:57:08;;;;;;;;;;;10.00;99.90;;;;;;5070286;28;20063;-78
2023/03/26 11:59:34;;;;;;;;;;;10.00;99.90;;;;;;5119578;27;19925;-78
2023/03/26 12:02:03;;;;;;;;;;;10.00;98.70;;;;;;5065500;28;20023;-77
2023/03/26 12:04:35;;;;;;;;;;;10.10;98.00;;;;;;5091258;28;19931;-78
2023/03/26 12:07:16;;;;;;;;;;;10.00;97.50;;;;;;5080196;28;20066;-78
2023/03/26 12:09:55;;;;;;;;;;;9.90;98.80;;;;;;5081136;28;19980;-78
2023/03/26 12:12:24;;;;;;;;;;;9.80;98.00;;;;;;5080309;28;19931;-79
2023/03/26 12:14:50;;;;;;;;;;;9.80;98.10;;;;;;5074471;28;19968;-78
2023/03/26 12:17:24;;;;;;;;;;;9.80;98.80;;;;;;5069675;28;20457;-78
2023/03/26 12:19:50;;;;;;;;;;;9.80;99.00;;;;;;5096010;28;20006;-77
2023/03/26 12:22:36;;;;;;;;;;;9.90;99.30;;;;;;5074135;28;19995;-78
2023/03/26 12:25:01;;;;;;;;;;;10.00;98.90;;;;;;5080190;28;19938;-79
2023/03/26 12:27:29;;;;;;;;;;;10.10;99.60;;;;;;5122228;27;19975;-78
2023/03/26 12:30:08;;;;;;;;;;;10.10;98.40;;;;;;5096392;28;19928;-78
2023/03/26 12:32:39;;;;;;;;;;;10.10;98.90;;;;;;5082190;28;19935;-78
2023/03/26 12:35:06;;;;;;;;;;;10.00;97.40;;;;;;5116508;28;19924;-78
2023/03/26 12:37:42;;;;;;;;;;;10.00;98.70;;;;;;5108416;28;19924;-77
2023/03/26 12:40:10;;;;;;;;;;;10.00;97.60;;;;;;5082464;28;19943;-78
2023/03/26 12:42:38;;;;;;;;;;;9.90;96.90;;;;;;5083152;28;19928;-77
2023/03/26 12:45:05;;;;;;;;;;;9.70;95.90;;;;;;5082418;28;19924;-78
2023/03/26 12:47:32;;;;;;;;;;;9.60;96.20;;;;;;5100587;28;20296;-78
2023/03/26 12:49:58;;;;;;;;;;;9.60;98.10;;;;;;5082600;28;19934;-77
2023/03/26 12:52:43;;;;;;;;;;;9.60;97.10;;;;;;5133405;27;19928;-78
2023/03/26 12:55:25;;;;;;;;;;;9.60;98.20;;;;;;5082683;28;19929;-77
2023/03/26 12:57:50;;;;;;;;;;;9.60;96.80;;;;;;5100356;28;20057;-77
2023/03/26 13:00:29;;;;;;;;;;;9.60;95.70;;;;;;5081990;28;20314;-78
2023/03/26 13:03:06;;;;;;;;;;;9.60;96.80;;;;;;5098770;28;20014;-77
2023/03/26 13:05:32;;;;;;;;;;;9.50;96.30;;;;;;5115553;28;19978;-78
2023/03/26 13:08:31;;;;;;;;;;;9.50;95.80;;;;;;5083218;28;19924;-77
2023/03/26 13:11:04;;;;;;;;;;;9.50;96.00;;;;;;5055095;28;19924;-77
2023/03/26 13:13:45;;;;;;;;;;;9.50;95.30;;;;;;5068846;28;20379;-78
2023/03/26 13:16:13;;;;;;;;;;;9.50;95.40;;;;;;5069589;28;19931;-77
2023/03/26 13:18:52;;;;;;;;;;;9.50;95.80;;;;;;5098986;28;19950;-78
2023/03/26 13:21:29;;;;;;;;;;;9.70;96.50;;;;;;5081115;28;20137;-78
2023/03/26 13:24:05;;;;;;;;;;;9.70;95.70;;;;;;5106764;28;19943;-77
2023/03/26 13:26:50;;;;;;;;;;;9.70;95.40;;;;;;5099020;28;19946;-82
2023/03/26 13:29:20;;;;;;;;;;;9.60;95.10;;;;;;5070691;28;19932;-78
2023/03/26 13:31:49;;;;;;;;;;;9.70;96.20;;;;;;5110935;27;20434;-78
2023/03/26 13:34:15;;;;;;;;;;;9.80;96.00;;;;;;5065211;28;19946;-79
2023/03/26 13:36:47;;;;;;;;;;;9.80;94.20;;;;;;5093859;28;19924;-78
2023/03/26 13:39:21;;;;;;;;;;;9.80;93.20;;;;;;5088561;28;19924;-78
2023/03/26 13:41:46;;;;;;;;;;;9.80;93.30;;;;;;5077551;28;19932;-78
2023/03/26 13:44:24;;;;;;;;;;;9.70;92.80;;;;;;5088737;28;20414;-78
2023/03/26 13:47:13;;;;;;;;;;;9.70;92.70;;;;;;5077363;28;19924;-78
2023/03/26 13:49:45;;;;;;;;;;;9.60;93.10;;;;;;5069286;28;19977;-78
2023/03/26 13:52:13;;;;;;;;;;;9.70;92.20;;;;;;5096913;28;19981;-78
2023/03/26 13:54:45;;;;;;;;;;;9.70;93.20;;;;;;5077554;28;19932;-78
2023/03/26 13:57:24;;;;;;;;;;;9.60;92.40;;;;;;5086110;28;19924;-78
2023/03/26 14:00:15;;;;;;;;;;;9.60;93.00;;;;;;5116752;27;19980;-78
2023/03/26 14:02:42;;;;;;;;;;;9.60;92.50;;;;;;5077510;28;20357;-78
2023/03/26 14:05:17;;;;;;;;;;;9.60;91.10;;;;;;5113561;28;20061;-78
2023/03/26 14:07:51;;;;;;;;;;;9.50;92.10;;;;;;5085047;28;19924;-78
2023/03/26 14:10:34;;;;;;;;;;;9.40;90.60;;;;;;5075444;28;20009;-78
2023/03/26 14:12:59;;;;;;;;;;;9.50;91.90;;;;;;5092585;28;20049;-78
2023/03/26 14:15:30;;;;;;;;;;;9.50;91.40;;;;;;5068423;28;19986;-78
2023/03/26 14:18:02;;;;;;;;;;;9.50;91.10;;;;;;5071701;28;19925;-78
2023/03/26 14:20:47;;;;;;;;;;;9.40;90.40;;;;;;5059318;28;19931;-78
2023/03/26 14:23:15;;;;;;;;;;;9.40;91.10;;;;;;5074567;28;19964;-78
2023/03/26 14:26:00;;;;;;;;;;;9.50;91.20;;;;;;5059332;28;19947;-77
2023/03/26 14:28:44;;;;;;;;;;;9.60;91.00;;;;;;5078434;28;20296;-78
2023/03/26 14:31:29;;;;;;;;;;;9.50;88.80;;;;;;5071146;28;19932;-78
2023/03/26 14:33:54;;;;;;;;;;;9.40;90.00;;;;;;5085828;28;19935;-78
2023/03/26 14:36:20;;;;;;;;;;;9.40;90.20;;;;;;5071063;28;19925;-78
2023/03/26 14:38:58;;;;;;;;;;;9.40;91.10;;;;;;5066034;28;19956;-78
2023/03/26 14:41:27;;;;;;;;;;;9.40;91.00;;;;;;5068992;28;19928;-78
2023/03/26 14:44:12;;;;;;;;;;;9.40;90.40;;;;;;5070065;28;20260;-78
2023/03/26 14:46:56;;;;;;;;;;;9.40;91.10;;;;;;5068087;28;19924;-78
2023/03/26 14:49:42;;;;;;;;;;;9.30;90.40;;;;;;5076582;28;19931;-78
2023/03/26 14:52:17;;;;;;;;;;;9.30;90.30;;;;;;5075696;28;19929;-78